CheckWX is a tool to help pilots better visualize weather data.  It is not intended as a substitute for an official pre-flight weather briefing.

04:19:04 UTC

KCHO METAR
Charlottesville-Albemarle Airport
Charlottesville, Virginia, USA
Current

26 mins ago

KCHO 270353Z AUTO VRB06KT 6SM -RA BR SCT060 SCT080 BKN090 23/21 A3000 RMK AO2 LTG DSNT NE AND E RAB00 PRESRR SLP149 P0007 T02330211
Observed
May-27 @ 03:53 UTC
Wind
  • Variable at 6 KTS
Visibility
6 SM
Flight Rules
VFR
Conditions
Light Rain, Mist
Cloud Levels
  • Scattered at 6,000' AGL
  • Scattered at 8,000' AGL
  • Broken at 9,000' AGL
Temperature
23°C / 73°F
Dewpoint
21°C / 70°F
Humidity
89%
Altimeter
30" Hg
Pressure
1015.92 hPa
Current Rain
0.07"
Previous

58 mins ago

KCHO 270321Z AUTO 00000KT 6SM VCTS -RA BR FEW041 SCT060 BKN100 23/21 A2997 RMK AO2 LTG DSNT E AND W RAB00 P0004 T02330211
Observed
May-27 @ 03:21 UTC
Visibility
6 SM
Flight Rules
VFR
Conditions
Area Thunderstorm, Light Rain, Mist
Cloud Levels
  • Few at 4,100' AGL
  • Scattered at 6,000' AGL
  • Broken at 10,000' AGL
Temperature
23°C / 73°F
Dewpoint
21°C / 70°F
Humidity
89%
Altimeter
29.97" Hg
Pressure
1014.92 hPa
Current Rain
0.04"
Previous

1 hour ago

KCHO 270314Z AUTO 04005KT 2 1/2SM VCTS -RA FEW044 SCT060 BKN090 24/21 A2997 RMK AO2 LTG DSNT E AND SE RAB00 P0003 T02390211
Observed
May-27 @ 03:14 UTC
Wind
  • 040° at 5 KTS
Visibility
2 1/2 SM
Flight Rules
IFR
Conditions
Area Thunderstorm, Light Rain
Cloud Levels
  • Few at 4,400' AGL
  • Scattered at 6,000' AGL
  • Broken at 9,000' AGL
Temperature
24°C / 75°F
Dewpoint
21°C / 70°F
Humidity
83%
Altimeter
29.97" Hg
Pressure
1014.92 hPa
Current Rain
0.03"